createdAt,value
2016-04-24T16:55:40.619Z,22.81
2016-04-24T16:56:40.232Z,22.82
2016-04-24T16:57:40.281Z,22.84
2016-04-24T16:58:40.299Z,22.84
2016-04-24T16:59:40.333Z,22.85
2016-04-24T17:00:40.368Z,22.85
2016-04-24T17:01:40.401Z,22.78
2016-04-24T17:02:40.435Z,23
2016-04-24T17:03:40.484Z,22.88
2016-04-24T17:04:40.503Z,22.88
2016-04-24T17:05:40.568Z,22.94
2016-04-24T17:06:40.587Z,22.99
2016-04-24T17:07:40.636Z,22.99
2016-04-24T17:08:40.670Z,22.96
2016-04-24T17:09:40.751Z,22.96
2016-04-24T17:10:40.800Z,22.96
2016-04-24T17:11:41.756Z,22.94
2016-04-24T17:12:40.822Z,22.97
2016-04-24T17:13:40.872Z,22.97
2016-04-24T17:16:47.754Z,23.07
2016-04-24T17:17:47.819Z,23.16
2016-04-24T17:18:47.838Z,23.07
2016-04-24T17:19:47.855Z,23.15
2016-04-24T17:20:47.905Z,23.1
2016-04-24T17:22:09.908Z,23.04
2016-04-24T18:21:20.302Z,22.99
2016-04-24T18:22:20.319Z,23
2016-04-24T18:23:20.369Z,22.99
2016-04-24T18:24:19.497Z,22.97
2016-04-24T18:25:19.530Z,23
2016-04-24T18:26:19.611Z,22.92
2016-04-24T18:27:19.599Z,22.96
2016-04-24T18:28:19.632Z,22.94
2016-04-24T18:29:19.682Z,22.99
2016-04-24T18:30:19.716Z,22.92
2016-04-24T18:31:19.750Z,22.96
2016-04-24T18:32:19.799Z,23.06
2016-04-24T18:33:19.833Z,23.09
2016-04-24T18:34:19.868Z,23.03
2016-04-24T18:35:19.917Z,23.06
2016-04-24T18:36:19.951Z,23.12
2016-04-24T18:37:19.984Z,23.21
2016-04-24T18:38:20.019Z,23.19
2016-04-24T18:39:20.068Z,23.12
2016-04-24T18:40:20.118Z,23.15
2016-04-24T18:41:20.339Z,23.24
2016-04-24T18:42:20.186Z,23.21
2016-04-24T18:43:20.220Z,23.26
2016-04-24T18:44:20.270Z,23.28
2016-04-24T18:45:20.319Z,23.25
2016-04-24T18:46:20.353Z,23.25
2016-04-24T18:47:20.402Z,23.24
2016-04-24T18:48:20.436Z,23.35
2016-04-24T18:49:20.486Z,23.28
2016-04-24T18:50:20.536Z,23.34
2016-04-24T18:51:20.553Z,23.32
2016-04-24T18:52:20.603Z,23.38
2016-04-24T18:53:20.638Z,23.35
2016-04-24T18:54:20.672Z,23.35
2016-04-24T18:55:20.721Z,23.37
2016-04-24T18:56:20.771Z,23.38
2016-04-24T18:57:20.804Z,23.35
2016-04-24T18:58:20.854Z,23.28
2016-04-24T18:59:20.904Z,23.32
2016-04-24T19:00:20.922Z,23.34
2016-04-24T19:01:20.971Z,23.35
2016-04-24T19:02:21.005Z,23.34
2016-04-24T19:03:21.054Z,23.26
2016-04-24T19:04:21.088Z,23.28
2016-04-24T19:05:21.123Z,23.28
2016-04-24T19:06:21.187Z,23.28
2016-04-24T19:07:21.207Z,23.34
2016-04-24T19:08:21.256Z,23.35
2016-04-24T19:09:21.290Z,23.35
2016-04-24T19:10:21.371Z,23.37
2016-04-24T19:11:21.232Z,23.26
2016-04-24T19:12:21.423Z,23.28
2016-04-24T19:13:21.456Z,23.34
2016-04-24T19:14:21.507Z,23.34
2016-04-24T19:15:21.555Z,23.35
2016-04-24T19:16:21.621Z,23.35
2016-04-24T19:17:21.624Z,23.4
2016-04-24T19:18:21.673Z,23.34
2016-04-24T19:19:21.708Z,23.32
2016-04-24T19:20:21.756Z,23.34
2016-04-24T19:21:21.791Z,23.34
2016-04-24T19:22:21.841Z,23.34
2016-04-24T19:23:21.881Z,23.29
2016-04-24T19:24:21.932Z,23.29
2016-04-24T19:25:21.965Z,23.35
2016-04-24T19:26:21.998Z,23.28
2016-04-24T19:27:22.064Z,23.35
2016-04-24T19:28:22.082Z,23.34
2016-04-24T19:29:22.210Z,23.35
2016-04-24T19:30:22.244Z,23.32
2016-04-24T19:31:22.246Z,23.35
2016-04-24T19:32:22.248Z,23.32
2016-04-24T19:33:22.284Z,23.38
2016-04-24T19:34:22.333Z,23.37
2016-04-24T19:35:22.367Z,23.4
2016-04-24T19:36:22.400Z,23.34
2016-04-24T19:37:22.450Z,23.35
2016-04-24T19:38:22.492Z,23.37
2016-04-24T19:39:22.541Z,23.32
2016-04-24T19:40:22.575Z,23.35
2016-04-24T19:41:23.234Z,23.26
2016-04-24T19:42:22.658Z,23.38
2016-04-24T19:43:22.693Z,23.35
2016-04-24T19:44:22.742Z,23.35
2016-04-24T19:45:22.777Z,23.34
2016-04-24T19:46:22.826Z,23.37
2016-04-24T19:47:22.860Z,23.32
2016-04-24T19:48:22.893Z,23.41
2016-04-24T19:49:22.943Z,23.35
2016-04-24T19:50:22.993Z,23.38
2016-04-24T19:51:23.043Z,23.35
2016-04-24T19:52:23.077Z,23.37
2016-04-24T19:53:23.110Z,23.35
2016-04-24T19:54:23.176Z,23.42
2016-04-24T19:55:23.193Z,23.35
2016-04-24T19:56:23.431Z,23.4
2016-04-24T19:57:23.276Z,23.35
2016-04-24T19:58:23.327Z,23.32
2016-04-24T19:59:23.361Z,23.35
2016-04-24T20:00:23.409Z,23.35
2016-04-24T20:01:23.444Z,23.35
2016-04-24T20:02:23.478Z,23.35
2016-04-24T20:03:23.528Z,23.35
2016-04-24T20:04:23.562Z,23.34
2016-04-24T20:05:23.548Z,23.45
2016-04-24T20:06:23.660Z,23.37
2016-04-24T20:07:23.737Z,23.32
2016-04-24T20:08:23.830Z,23.35
2016-04-24T20:09:23.908Z,23.32
2016-04-24T20:10:23.999Z,23.37
2016-04-24T20:11:24.686Z,23.32
2016-04-24T20:12:24.127Z,23.41
2016-04-24T20:13:24.192Z,23.32
2016-04-24T20:14:24.242Z,23.34
2016-04-24T20:15:24.291Z,23.38
2016-04-24T20:16:24.353Z,23.29
2016-04-24T20:17:24.392Z,23.37
2016-04-24T20:18:24.447Z,23.29
2016-04-24T20:19:24.501Z,23.35
2016-04-24T20:20:24.541Z,23.37
2016-04-24T20:21:24.579Z,23.4
2016-04-24T20:22:24.631Z,23.38
2016-04-24T20:23:24.668Z,23.41
2016-04-24T20:24:24.719Z,23.37
2016-04-24T20:25:24.756Z,23.42
2016-04-24T20:26:24.697Z,23.37
2016-04-24T20:27:24.842Z,23.42
2016-04-24T20:28:24.876Z,23.4
2016-04-24T20:29:24.927Z,23.37
2016-04-24T20:30:24.977Z,23.41
2016-04-24T20:31:25.012Z,23.42
2016-04-24T20:33:12.658Z,23.47
2016-04-24T20:33:32.908Z,23.48
2016-04-24T20:35:05.022Z,23.45
2016-04-24T20:35:33.678Z,23.44
2016-04-24T20:36:33.744Z,23.44
2016-04-24T20:37:33.763Z,23.48
2016-04-24T20:38:33.812Z,23.42
2016-04-24T20:39:33.847Z,23.42
2016-04-24T20:40:06.692Z,23.47
2016-04-24T20:44:04.797Z,23.47
2016-04-24T20:45:04.831Z,23.48
2016-04-24T21:11:11.839Z,23.64
2016-04-24T21:12:12.545Z,23.64
2016-04-24T21:13:12.094Z,23.63
2016-04-24T21:14:12.128Z,23.7
2016-04-24T21:15:12.177Z,23.67
2016-04-24T21:16:12.211Z,23.72
2016-04-24T21:17:12.261Z,23.7
2016-04-24T21:18:12.295Z,23.72
2016-04-24T21:19:12.360Z,23.71
2016-04-24T21:20:12.363Z,23.67
2016-04-24T21:21:12.427Z,23.7
2016-04-24T21:22:12.463Z,23.67
2016-04-24T21:23:12.512Z,23.59
2016-04-24T21:24:12.546Z,23.78
2016-04-24T21:25:12.610Z,24.07
2016-04-24T21:26:12.691Z,24.36
2016-04-24T21:27:12.584Z,24.46
2016-04-24T21:28:12.712Z,24.48
2016-04-24T21:29:12.778Z,24.66
2016-04-24T21:30:12.812Z,24.78
2016-04-24T21:31:12.861Z,24.89
2016-04-24T21:32:12.880Z,24.89
2016-04-24T21:33:12.945Z,25.02
2016-04-24T21:34:13.087Z,25.01
2016-04-24T21:35:13.231Z,25.12
2016-04-24T21:36:13.062Z,25.05
2016-04-24T21:37:13.112Z,25.11
2016-04-24T21:38:13.145Z,25.09
2016-04-24T21:39:13.211Z,25.19
2016-04-24T21:40:13.229Z,25.19
2016-04-24T21:41:13.279Z,25.26
2016-04-24T21:42:14.156Z,25.27
2016-04-24T21:43:13.362Z,25.24
2016-04-24T21:44:13.412Z,25.23
2016-04-24T21:45:13.461Z,25.24
2016-04-24T21:46:13.511Z,25.27
2016-04-24T21:47:13.545Z,25.22
2016-04-24T21:48:13.578Z,25.26
2016-04-24T21:49:13.628Z,25.26
2016-04-24T21:50:13.678Z,25.26
2016-04-24T21:51:14.025Z,25.24
2016-04-24T21:52:13.762Z,25.32
2016-04-24T21:53:13.796Z,25.3
2016-04-24T21:54:13.860Z,25.2
2016-04-24T21:55:13.879Z,25.29
2016-04-24T21:56:13.929Z,25.27
2016-04-24T21:57:13.962Z,25.3
2016-04-24T21:58:14.012Z,25.27
2016-04-24T21:59:14.062Z,25.37
2016-04-24T22:00:14.110Z,25.48
2016-04-24T22:01:14.145Z,25.78
2016-04-24T22:02:14.195Z,25.79
2016-04-24T22:03:14.229Z,25.79
2016-04-24T22:03:33.635Z,26.03
2016-04-24T22:04:33.653Z,26.39
2016-04-24T22:05:33.718Z,26.45
2016-04-24T22:06:33.751Z,26.47
2016-04-24T22:07:33.802Z,26.42
2016-04-24T22:08:33.851Z,26.47
2016-04-24T22:09:33.901Z,26.31
2016-04-24T22:10:33.934Z,26.35
2016-04-24T22:11:34.829Z,26.34
2016-04-24T22:12:34.253Z,26.31
2016-04-24T22:13:34.068Z,26.32
2016-04-24T22:14:34.102Z,26.22
2016-04-24T22:15:34.152Z,26.24
2016-04-24T22:16:34.186Z,26.2
2016-04-24T22:17:34.236Z,26.24
2016-04-24T22:18:34.269Z,26.22
2016-04-24T22:19:34.319Z,26.22
2016-04-24T22:20:34.368Z,26.15
2016-04-24T22:21:34.403Z,26.11
2016-04-24T22:22:34.452Z,26.11
2016-04-24T22:23:34.502Z,26.09
2016-04-24T22:24:34.519Z,26.12
2016-04-24T22:25:34.585Z,26.07
2016-04-24T22:26:34.728Z,25.86
2016-04-24T22:27:34.512Z,25.64
2016-04-24T22:28:34.686Z,25.56
2016-04-24T22:29:34.861Z,25.52
2016-04-24T22:30:34.895Z,25.52
2016-04-24T22:31:34.944Z,25.56
2016-04-24T22:32:34.854Z,25.52
2016-04-24T22:33:34.919Z,25.57
2016-04-24T22:34:35.062Z,25.49
2016-04-24T22:35:35.034Z,25.54
2016-04-24T22:36:35.036Z,25.44
2016-04-24T22:37:35.071Z,25.56
2016-04-24T22:38:35.120Z,25.47
2016-04-24T22:39:35.170Z,25.49
2016-04-24T22:40:35.204Z,25.51
2016-04-24T22:41:35.315Z,25.51
2016-04-24T22:42:35.318Z,25.54
2016-04-24T22:43:35.321Z,25.56
2016-04-24T22:44:35.479Z,25.49
2016-04-24T22:45:35.420Z,25.57
2016-04-24T22:46:35.469Z,25.56
2016-04-24T22:47:35.503Z,25.64
2016-04-24T22:48:35.662Z,25.59
2016-04-24T22:49:35.587Z,25.59
2016-04-24T22:50:35.620Z,25.56
2016-04-24T22:51:35.686Z,25.6
2016-04-24T22:52:35.720Z,25.56
2016-04-24T22:53:35.754Z,25.59
2016-04-24T22:54:36.053Z,25.6
2016-04-24T22:55:35.822Z,26.57
2016-04-24T22:56:35.886Z,27.46
2016-04-24T22:57:35.921Z,29.55
2016-04-24T22:58:36.017Z,30.62
2016-04-24T22:59:35.989Z,31.15
2016-04-24T23:00:36.038Z,31.44
2016-04-24T23:01:36.072Z,30.77
2016-04-24T23:02:36.387Z,28.97
2016-04-24T23:03:36.141Z,28.11
2016-04-24T23:04:36.190Z,27.72
2016-04-24T23:05:36.208Z,27.36
2016-04-24T23:06:36.257Z,27.11
2016-04-24T23:07:36.307Z,27.34
2016-04-24T23:08:36.325Z,27.36
2016-04-24T23:09:36.376Z,27.19
2016-04-24T23:10:36.393Z,27.26
2016-04-24T23:11:36.443Z,27.21
2016-04-24T23:12:36.476Z,27.19
2016-04-24T23:13:36.557Z,27.23
2016-04-24T23:14:36.545Z,27.27
2016-04-24T23:15:36.595Z,27.76
2016-04-24T23:16:36.612Z,28.21
2016-04-24T23:17:36.740Z,29.01
2016-04-24T23:18:36.695Z,29.24
2016-04-24T23:19:36.731Z,29.23
2016-04-24T23:20:36.780Z,29.52
2016-04-24T23:21:36.814Z,29.67
2016-04-24T23:22:36.847Z,29.77
2016-04-24T23:23:36.882Z,29.89
2016-04-24T23:24:36.916Z,29.43
2016-04-24T23:25:36.965Z,28.54
2016-04-24T23:26:36.999Z,27.86
2016-04-24T23:27:37.517Z,27.31
2016-04-24T23:28:37.051Z,27
2016-04-24T23:29:37.116Z,26.67
2016-04-24T23:30:37.135Z,26.49
2016-04-24T23:31:37.310Z,26.23
2016-04-24T23:32:37.296Z,25.88
2016-04-24T23:33:37.424Z,25.62
2016-04-24T23:34:37.302Z,25.34
2016-04-24T23:35:37.336Z,25.04
2016-04-24T23:36:37.354Z,24.87
2016-04-24T23:37:37.404Z,24.67
2016-04-24T23:38:37.421Z,24.45
2016-04-24T23:39:37.456Z,24.4
2016-04-24T23:40:37.505Z,24.32
2016-04-24T23:41:37.540Z,24.17
2016-04-24T23:42:37.448Z,24.09
2016-04-24T23:43:37.607Z,24.03
2016-04-24T23:44:37.657Z,23.99
2016-04-24T23:45:37.690Z,23.87
2016-04-24T23:46:37.740Z,23.81
2016-04-24T23:47:37.759Z,23.81
2016-04-24T23:48:37.808Z,23.79
2016-04-24T23:49:37.936Z,23.74
2016-04-24T23:50:37.892Z,23.75
2016-04-24T23:51:37.909Z,23.66
2016-04-24T23:52:37.944Z,23.7
2016-04-24T23:53:38.025Z,23.59
2016-04-24T23:54:38.012Z,23.7
2016-04-24T23:55:38.078Z,23.62
2016-04-24T23:56:38.080Z,23.56
2016-04-24T23:57:38.082Z,23.53
2016-04-24T23:58:38.163Z,23.45
2016-04-24T23:59:38.181Z,23.44
